Time;durP1;ratioP1;P1;durP2;ratioP2;P2;SDS_P1;SDS_P2;PMS_P1;PMS_P2;Temp;Humidity;BMP_temperature;BMP_pressure;BME280_temperature;BME280_humidity;BME280_pressure;Samples;Min_cycle;Max_cycle;Signal;HPM_P1;HPM_P2
2023/04/19 04:01:25;;;;;;;0.60;0.10;;;11.40;99.90;;;;;;5579723;23;20286;-74
2023/04/19 04:03:53;;;;;;;2.10;0.77;;;11.30;99.90;;;;;;4913726;29;20438;-74
2023/04/19 04:06:21;;;;;;;1.10;0.73;;;11.10;99.90;;;;;;4918054;29;20472;-74
2023/04/19 04:08:49;;;;;;;0.60;0.10;;;11.10;99.90;;;;;;4918618;29;20455;-75
2023/04/19 04:11:17;;;;;;;1.10;1.00;;;11.10;99.90;;;;;;4918460;29;20467;-76
2023/04/19 04:13:45;;;;;;;0.60;0.20;;;11.10;99.90;;;;;;4917967;29;20460;-75
2023/04/19 04:16:13;;;;;;;0.60;0.30;;;11.10;99.90;;;;;;4946142;23;20504;-72
2023/04/19 04:18:42;;;;;;;0.60;0.10;;;11.20;99.90;;;;;;4931410;29;20892;-70
2023/04/19 04:21:10;;;;;;;0.50;0.10;;;11.20;99.90;;;;;;4940191;29;20457;-70
2023/04/19 04:23:38;;;;;;;1.10;0.90;;;11.20;99.90;;;;;;4939202;29;20765;-70
2023/04/19 04:26:08;;;;;;;0.80;0.30;;;11.20;99.90;;;;;;4937377;29;20489;-70
2023/04/19 04:28:38;;;;;;;0.50;0.20;;;11.20;99.90;;;;;;4936961;29;20955;-71
2023/04/19 04:31:06;;;;;;;0.60;0.30;;;11.20;99.90;;;;;;4935025;29;20528;-70
2023/04/19 04:33:33;;;;;;;0.60;0.20;;;11.20;99.90;;;;;;4934408;29;21200;-69
2023/04/19 04:36:04;;;;;;;0.70;0.33;;;11.30;99.90;;;;;;4937046;29;20531;-70
2023/04/19 04:38:32;;;;;;;0.60;0.20;;;11.30;99.90;;;;;;4936929;29;20472;-69
2023/04/19 04:41:00;;;;;;;1.77;1.67;;;11.30;99.90;;;;;;4937123;29;20468;-71
2023/04/19 04:43:28;;;;;;;0.60;0.30;;;11.30;99.90;;;;;;4932843;29;20478;-69
2023/04/19 04:45:56;;;;;;;1.70;1.60;;;11.30;99.90;;;;;;4936912;29;20470;-71
2023/04/19 04:48:25;;;;;;;0.80;0.50;;;;;;;;;;4936012;29;20469;-68
2023/04/19 04:50:53;;;;;;;0.60;0.53;;;11.30;99.90;;;;;;4933037;29;20441;-70
2023/04/19 04:53:22;;;;;;;0.60;0.23;;;11.30;99.90;;;;;;4936068;29;20481;-68
2023/04/19 04:55:50;;;;;;;0.60;0.10;;;11.30;99.90;;;;;;4937019;29;20927;-72
2023/04/19 04:58:18;;;;;;;0.53;0.10;;;11.30;99.90;;;;;;4937490;29;20538;-70
2023/04/19 05:00:47;;;;;;;0.57;0.20;;;11.30;99.90;;;;;;4937845;29;20462;-70
2023/04/19 05:03:15;;;;;;;0.90;0.40;;;11.30;99.90;;;;;;4937364;29;20449;-71
2023/04/19 05:05:43;;;;;;;0.70;0.60;;;11.30;99.90;;;;;;4936547;29;20464;-68
2023/04/19 05:08:12;;;;;;;1.23;1.13;;;11.30;99.90;;;;;;4936139;29;20455;-67
2023/04/19 05:10:41;;;;;;;0.60;0.10;;;11.40;99.90;;;;;;4935947;29;20499;-71
2023/04/19 05:13:09;;;;;;;0.50;0.20;;;11.40;99.90;;;;;;4933649;29;20478;-72
2023/04/19 05:15:37;;;;;;;0.93;0.43;;;11.40;99.90;;;;;;4937428;29;20489;-71
2023/04/19 05:18:06;;;;;;;0.83;0.83;;;11.40;99.90;;;;;;4937255;29;20459;-69
2023/04/19 05:20:33;;;;;;;0.60;0.10;;;11.40;99.90;;;;;;4936524;29;20478;-72
2023/04/19 05:23:02;;;;;;;0.60;0.10;;;;;;;;;;4935696;29;20453;-71
2023/04/19 05:25:32;;;;;;;0.50;0.10;;;11.40;99.90;;;;;;4935371;29;20501;-70
2023/04/19 05:28:04;;;;;;;1.03;0.50;;;11.40;99.90;;;;;;4936441;29;20457;-70
2023/04/19 05:30:31;;;;;;;0.60;0.60;;;11.40;99.90;;;;;;4936205;29;20493;-70
2023/04/19 05:33:00;;;;;;;0.50;0.20;;;11.40;99.90;;;;;;4933595;29;20588;-70
2023/04/19 05:35:27;;;;;;;0.60;0.30;;;11.40;99.90;;;;;;4934026;29;20492;-71
2023/04/19 05:37:56;;;;;;;0.60;0.20;;;11.40;99.90;;;;;;4930427;29;20475;-71
2023/04/19 05:40:23;;;;;;;2.63;2.53;;;11.50;99.90;;;;;;4936092;29;20448;-70
2023/04/19 05:42:51;;;;;;;0.60;0.10;;;11.50;99.90;;;;;;4935986;29;20449;-69
2023/04/19 05:45:22;;;;;;;0.80;0.60;;;11.50;99.90;;;;;;4935986;29;20469;-71
2023/04/19 05:47:49;;;;;;;0.53;0.10;;;11.40;99.90;;;;;;4933887;29;20472;-69
2023/04/19 05:50:19;;;;;;;0.53;0.10;;;11.40;99.90;;;;;;4936794;29;20603;-71
2023/04/19 05:52:47;;;;;;;3.70;1.90;;;11.50;99.90;;;;;;4940853;29;20483;-71
2023/04/19 05:55:15;;;;;;;0.60;0.20;;;11.50;99.90;;;;;;4942423;29;20488;-70
2023/04/19 05:57:43;;;;;;;0.80;0.73;;;11.50;99.90;;;;;;4927917;29;20461;-72
2023/04/19 06:00:11;;;;;;;0.63;0.40;;;11.50;99.90;;;;;;4928141;29;20473;-72
2023/04/19 06:02:42;;;;;;;0.60;0.20;;;11.50;99.90;;;;;;4935282;29;20825;-70
2023/04/19 06:05:10;;;;;;;0.70;0.20;;;11.60;99.90;;;;;;4934878;29;20456;-70
2023/04/19 06:07:39;;;;;;;2.37;2.17;;;11.60;99.90;;;;;;4934479;29;20449;-71
2023/04/19 06:10:20;;;;;;;1.90;0.83;;;11.60;99.90;;;;;;4934624;29;20438;-70
2023/04/19 06:12:49;;;;;;;0.70;0.50;;;11.50;99.90;;;;;;4934499;29;20463;-70
2023/04/19 06:15:17;;;;;;;0.87;0.87;;;11.50;99.90;;;;;;4934279;29;20551;-70
2023/04/19 06:17:46;;;;;;;0.60;0.10;;;11.50;99.90;;;;;;4935468;29;20428;-71
2023/04/19 06:20:17;;;;;;;0.90;0.33;;;11.50;99.90;;;;;;4936803;29;20481;-71
2023/04/19 06:22:46;;;;;;;0.80;0.80;;;11.50;99.90;;;;;;4936861;29;20494;-70
2023/04/19 06:25:14;;;;;;;1.00;0.33;;;11.60;99.90;;;;;;4934255;29;20560;-71
2023/04/19 06:27:44;;;;;;;2.63;0.47;;;11.60;99.90;;;;;;4934412;29;20444;-71
2023/04/19 06:30:12;;;;;;;0.60;0.10;;;11.60;99.90;;;;;;4934184;29;20513;-71
2023/04/19 06:32:40;;;;;;;0.60;0.30;;;11.50;99.90;;;;;;4931698;29;20466;-71
2023/04/19 06:35:11;;;;;;;0.60;0.10;;;11.50;99.90;;;;;;4935172;29;20448;-70
2023/04/19 06:37:39;;;;;;;0.80;0.63;;;11.50;99.90;;;;;;4936314;29;20487;-70
2023/04/19 06:40:08;;;;;;;2.70;2.50;;;11.50;99.90;;;;;;4938588;29;20457;-70
2023/04/19 06:42:36;;;;;;;0.53;0.10;;;11.50;99.90;;;;;;4938120;29;20451;-71
2023/04/19 06:45:05;;;;;;;0.50;0.20;;;11.50;99.90;;;;;;4937841;29;20944;-71
2023/04/19 06:47:33;;;;;;;1.33;1.23;;;11.50;99.90;;;;;;4938336;29;20461;-71
2023/04/19 06:50:02;;;;;;;0.60;0.10;;;11.50;99.90;;;;;;4938537;29;20490;-70
2023/04/19 06:52:31;;;;;;;0.53;0.20;;;11.60;99.90;;;;;;4938636;29;20451;-70
2023/04/19 06:54:59;;;;;;;0.60;0.20;;;11.60;99.90;;;;;;4938313;29;20546;-70
2023/04/19 06:57:27;;;;;;;0.60;0.33;;;11.60;99.90;;;;;;4936532;29;20491;-70
2023/04/19 06:59:57;;;;;;;0.60;0.20;;;;;;;;;;4930897;29;20476;-72
2023/04/19 07:02:25;;;;;;;5.50;1.87;;;11.60;99.90;;;;;;4936068;29;20461;-70
2023/04/19 07:04:53;;;;;;;0.60;0.10;;;11.60;99.90;;;;;;4934084;29;20454;-70
2023/04/19 07:07:21;;;;;;;0.60;0.10;;;11.60;99.90;;;;;;4926302;29;20455;-70
2023/04/19 07:09:50;;;;;;;0.60;0.33;;;11.60;99.90;;;;;;4927052;29;20446;-71
2023/04/19 07:12:18;;;;;;;2.63;1.17;;;11.50;99.90;;;;;;4931640;29;21121;-70
2023/04/19 07:14:46;;;;;;;0.60;0.10;;;11.40;99.90;;;;;;4921306;29;20885;-71
2023/04/19 07:17:14;;;;;;;0.60;0.20;;;11.40;99.90;;;;;;4935710;29;20487;-70
2023/04/19 07:19:47;;;;;;;0.60;0.20;;;11.50;99.90;;;;;;4940609;29;20440;-70
2023/04/19 07:22:15;;;;;;;0.60;0.10;;;11.50;99.90;;;;;;4941579;29;20465;-70
2023/04/19 07:24:43;;;;;;;1.13;0.97;;;11.50;99.90;;;;;;4935345;29;20943;-71
2023/04/19 07:27:15;;;;;;;2.40;1.47;;;11.40;99.90;;;;;;4916829;29;20465;-70
2023/04/19 07:29:43;;;;;;;1.43;1.27;;;11.40;99.90;;;;;;4916829;29;20505;-70
2023/04/19 07:32:12;;;;;;;0.93;0.33;;;11.40;99.90;;;;;;4917017;29;20462;-70
2023/04/19 07:34:42;;;;;;;0.83;0.60;;;11.40;99.90;;;;;;4936029;29;20508;-70
2023/04/19 07:37:10;;;;;;;1.23;0.50;;;11.50;99.90;;;;;;4938376;29;21260;-69
2023/04/19 07:39:38;;;;;;;1.13;0.73;;;11.50;99.90;;;;;;4956570;28;20477;-71
2023/04/19 07:42:05;;;;;;;0.70;0.40;;;11.50;99.90;;;;;;4958682;28;20448;-71
2023/04/19 07:44:35;;;;;;;0.60;0.17;;;11.50;99.90;;;;;;4958362;28;20445;-71
2023/04/19 07:47:04;;;;;;;0.60;0.20;;;11.40;99.90;;;;;;4941471;28;20487;-70
2023/04/19 07:49:33;;;;;;;2.90;1.03;;;11.40;99.90;;;;;;4934320;29;20879;-70
2023/04/19 07:52:01;;;;;;;1.23;1.13;;;11.50;99.90;;;;;;4936290;29;20548;-70
2023/04/19 07:54:31;;;;;;;0.70;0.53;;;11.60;99.90;;;;;;4937919;29;20448;-69
2023/04/19 07:56:58;;;;;;;1.90;0.67;;;11.60;99.90;;;;;;4937111;29;20490;-69
2023/04/19 07:59:36;;;;;;;1.53;1.43;;;11.70;99.90;;;;;;4937973;29;20543;-70
2023/04/19 08:02:04;;;;;;;0.70;0.40;;;11.70;99.90;;;;;;4939124;29;20460;-70
2023/04/19 08:04:32;;;;;;;0.60;0.53;;;11.80;99.90;;;;;;4943341;29;20459;-71
2023/04/19 08:07:02;;;;;;;6.53;2.40;;;11.80;99.90;;;;;;4941490;29;20496;-69
2023/04/19 08:09:30;;;;;;;1.07;0.50;;;11.90;99.90;;;;;;4935516;29;20442;-70
2023/04/19 08:11:58;;;;;;;0.70;0.30;;;11.90;99.90;;;;;;4932897;29;20456;-70
2023/04/19 08:14:26;;;;;;;0.80;0.30;;;12.10;99.90;;;;;;4927749;29;20491;-68
2023/04/19 08:17:12;;;;;;;1.73;1.03;;;12.20;99.90;;;;;;4931876;29;20489;-68
2023/04/19 08:19:52;;;;;;;0.70;0.40;;;12.20;99.90;;;;;;4926784;29;21019;-70
2023/04/19 08:22:21;;;;;;;1.20;0.67;;;12.20;99.90;;;;;;4929120;29;20490;-70
2023/04/19 08:24:50;;;;;;;0.93;0.57;;;12.20;99.90;;;;;;4925018;29;20491;-70
2023/04/19 08:27:18;;;;;;;0.60;0.23;;;12.20;99.90;;;;;;4932969;29;20494;-70
2023/04/19 08:29:46;;;;;;;0.60;0.10;;;12.30;99.90;;;;;;4928688;29;20453;-70
2023/04/19 08:32:15;;;;;;;1.07;0.47;;;12.30;99.90;;;;;;4937065;29;20449;-70
2023/04/19 08:34:43;;;;;;;0.90;0.50;;;12.30;99.90;;;;;;4929259;29;20459;-70
2023/04/19 08:37:11;;;;;;;1.80;1.70;;;12.20;99.90;;;;;;4916885;29;20515;-69
2023/04/19 08:39:39;;;;;;;0.60;0.10;;;;;;;;;;4920133;29;20454;-69
2023/04/19 08:42:09;;;;;;;0.60;0.20;;;12.20;99.90;;;;;;4930933;29;20464;-70
2023/04/19 08:44:57;;;;;;;5.03;2.10;;;12.20;99.90;;;;;;4930857;29;20445;-70
2023/04/19 08:47:46;;;;;;;1.37;0.47;;;;;;;;;;4936137;29;20456;-71
2023/04/19 08:50:28;;;;;;;0.60;0.20;;;12.30;99.90;;;;;;4931498;29;20430;-70
2023/04/19 08:53:08;;;;;;;0.60;0.10;;;12.60;99.90;;;;;;4942502;29;20452;-69
2023/04/19 08:55:57;;;;;;;0.60;0.30;;;12.70;99.90;;;;;;4943409;29;20460;-70
2023/04/19 08:58:42;;;;;;;0.60;0.20;;;;;;;;;;4937803;29;20566;-69
2023/04/19 09:01:12;;;;;;;0.70;0.50;;;12.90;99.90;;;;;;4938537;29;20964;-69
2023/04/19 09:04:01;;;;;;;1.13;0.87;;;12.90;99.90;;;;;;4934408;29;20459;-70
2023/04/19 09:06:49;;;;;;;3.90;2.03;;;12.80;99.90;;;;;;4929421;29;20956;-69
2023/04/19 09:09:18;;;;;;;1.13;0.77;;;12.80;99.90;;;;;;4938988;29;20510;-70
2023/04/19 09:12:16;;;;;;;0.60;0.10;;;12.80;99.90;;;;;;4937139;29;20512;-70
2023/04/19 09:14:46;;;;;;;1.63;0.77;;;13.00;99.90;;;;;;4941239;29;20459;-70
2023/04/19 09:17:17;;;;;;;0.60;0.20;;;13.10;99.90;;;;;;4940716;29;20794;-70
2023/04/19 09:19:50;;;;;;;0.60;0.20;;;13.10;99.90;;;;;;4937942;29;20458;-69
2023/04/19 09:22:18;;;;;;;1.77;1.67;;;13.30;99.90;;;;;;4933248;29;20455;-70
2023/04/19 09:24:46;;;;;;;3.73;0.50;;;13.30;99.90;;;;;;4933860;29;20454;-70
2023/04/19 09:27:26;;;;;;;3.23;1.23;;;13.30;99.90;;;;;;4916148;29;20469;-70
2023/04/19 09:29:54;;;;;;;0.87;0.40;;;13.40;99.90;;;;;;4923721;29;20457;-70
2023/04/19 09:32:22;;;;;;;0.60;0.27;;;13.40;99.90;;;;;;4932341;29;20524;-69
2023/04/19 09:34:56;;;;;;;0.60;0.20;;;;;;;;;;4931754;29;20490;-68
2023/04/19 09:37:25;;;;;;;3.90;2.60;;;13.50;99.90;;;;;;4934892;29;20489;-69
2023/04/19 09:40:23;;;;;;;1.67;0.93;;;13.40;99.90;;;;;;4934433;29;20552;-70
2023/04/19 09:42:51;;;;;;;0.90;0.60;;;13.30;99.90;;;;;;4932313;29;20842;-70
2023/04/19 09:45:53;;;;;;;0.80;0.40;;;13.30;99.90;;;;;;4934877;29;20553;-69
2023/04/19 09:48:30;;;;;;;1.10;0.70;;;13.40;99.90;;;;;;4934679;29;21002;-69
2023/04/19 09:51:01;;;;;;;0.70;0.50;;;13.40;99.90;;;;;;4935503;29;20496;-70
2023/04/19 09:53:40;;;;;;;1.63;0.50;;;13.40;99.90;;;;;;4935569;29;20458;-70
2023/04/19 09:56:11;;;;;;;0.70;0.37;;;13.50;99.90;;;;;;4934373;29;20902;-69
2023/04/19 09:58:39;;;;;;;0.60;0.20;;;13.50;99.90;;;;;;4934205;29;20487;-69
2023/04/19 10:01:25;;;;;;;0.63;0.20;;;13.50;99.90;;;;;;4936656;29;20484;-70
2023/04/19 10:03:54;;;;;;;1.53;1.43;;;13.50;99.90;;;;;;4940337;29;20497;-70
2023/04/19 10:06:24;;;;;;;21.93;2.77;;;13.50;99.90;;;;;;4915388;29;20573;-70
2023/04/19 10:08:55;;;;;;;1.00;0.67;;;13.50;99.90;;;;;;4917388;29;20448;-72
2023/04/19 10:11:26;;;;;;;1.57;0.80;;;13.40;99.90;;;;;;4933822;29;20456;-69
2023/04/19 10:13:57;;;;;;;1.90;1.00;;;13.50;99.90;;;;;;4938237;29;20629;-70
2023/04/19 10:16:26;;;;;;;1.17;1.07;;;13.50;99.90;;;;;;4925922;29;20498;-70
2023/04/19 10:18:55;;;;;;;1.00;0.83;;;13.50;99.90;;;;;;4937155;29;20486;-71
2023/04/19 10:21:26;;;;;;;1.00;0.50;;;13.60;99.90;;;;;;4931828;29;20455;-70
2023/04/19 10:23:54;;;;;;;0.60;0.20;;;13.70;99.90;;;;;;4933616;29;20443;-72
2023/04/19 10:26:22;;;;;;;0.60;0.20;;;13.70;99.90;;;;;;4932816;29;20832;-70
2023/04/19 10:28:50;;;;;;;2.00;1.37;;;13.80;99.90;;;;;;4939368;29;20800;-71
2023/04/19 10:31:22;;;;;;;3.93;0.97;;;13.80;99.90;;;;;;4936222;29;20455;-70
2023/04/19 10:33:51;;;;;;;5.07;2.83;;;13.60;99.90;;;;;;4937863;29;20823;-69
2023/04/19 10:36:20;;;;;;;1.93;1.80;;;13.50;99.90;;;;;;4936833;29;20502;-70
2023/04/19 10:38:52;;;;;;;1.67;1.07;;;13.50;99.90;;;;;;4937281;29;20492;-70
2023/04/19 10:41:20;;;;;;;1.00;0.90;;;13.50;99.90;;;;;;4934918;29;20546;-69
2023/04/19 10:44:09;;;;;;;0.70;0.50;;;13.50;99.90;;;;;;4937862;29;20457;-71
2023/04/19 10:46:39;;;;;;;2.60;2.43;;;13.50;99.90;;;;;;4936709;29;20466;-70
2023/04/19 10:49:08;;;;;;;0.77;0.40;;;13.50;99.90;;;;;;4936470;29;20548;-70
2023/04/19 10:51:38;;;;;;;0.60;0.20;;;13.60;99.90;;;;;;4933855;29;20938;-72
2023/04/19 10:54:08;;;;;;;0.60;0.13;;;13.70;99.90;;;;;;4937850;29;20453;-71
2023/04/19 10:56:59;;;;;;;0.60;0.20;;;13.70;99.90;;;;;;4938680;29;20502;-70
2023/04/19 10:59:30;;;;;;;0.63;0.40;;;13.80;99.90;;;;;;4931551;29;20551;-70
2023/04/19 11:01:59;;;;;;;1.80;0.87;;;14.00;99.90;;;;;;4933649;29;20513;-70
2023/04/19 11:05:00;;;;;;;1.57;1.27;;;14.00;99.90;;;;;;4926910;29;20559;-69
2023/04/19 11:07:28;;;;;;;0.90;0.50;;;14.00;99.90;;;;;;4934311;29;21000;-70
2023/04/19 11:09:57;;;;;;;1.00;0.77;;;14.10;99.90;;;;;;4925793;29;20468;-69
2023/04/19 11:12:25;;;;;;;2.97;2.77;;;14.10;99.90;;;;;;4935882;29;20485;-69
2023/04/19 11:14:56;;;;;;;5.17;1.43;;;14.10;97.70;;;;;;4932600;29;20452;-69
2023/04/19 11:17:26;;;;;;;0.80;0.50;;;14.10;98.20;;;;;;4935828;29;20455;-68
2023/04/19 11:19:56;;;;;;;0.60;0.10;;;14.10;99.90;;;;;;4937753;29;20486;-70
2023/04/19 11:22:32;;;;;;;1.53;0.70;;;14.20;99.90;;;;;;4937287;29;20479;-70
2023/04/19 11:25:12;;;;;;;0.60;0.10;;;14.40;98.50;;;;;;4936448;29;20460;-70
2023/04/19 11:27:41;;;;;;;2.00;0.70;;;14.50;97.30;;;;;;4920660;29;20456;-70
2023/04/19 11:30:11;;;;;;;1.00;0.57;;;14.50;95.70;;;;;;4923919;29;20472;-70
2023/04/19 11:32:45;;;;;;;1.07;0.60;;;14.50;95.40;;;;;;4935015;29;20880;-70
2023/04/19 11:35:13;;;;;;;0.60;0.20;;;14.50;88.20;;;;;;4938210;29;20486;-69
2023/04/19 11:37:41;;;;;;;0.90;0.40;;;14.50;94.70;;;;;;4940172;29;20465;-70
2023/04/19 11:40:15;;;;;;;0.80;0.50;;;14.50;93.30;;;;;;4935990;29;20491;-70
2023/04/19 11:42:43;;;;;;;0.60;0.30;;;14.50;93.90;;;;;;4929916;29;20447;-71
2023/04/19 11:45:25;;;;;;;0.60;0.10;;;14.70;89.40;;;;;;4935868;29;20517;-71
2023/04/19 11:47:56;;;;;;;0.70;0.30;;;14.70;89.70;;;;;;4932006;29;20545;-71
2023/04/19 11:50:35;;;;;;;0.60;0.10;;;14.70;89.50;;;;;;4932211;29;20495;-71
2023/04/19 11:53:14;;;;;;;0.70;0.30;;;14.70;94.90;;;;;;4924026;29;20452;-70
2023/04/19 11:55:45;;;;;;;0.60;0.10;;;14.70;84.20;;;;;;4917783;29;20473;-71
2023/04/19 11:58:28;;;;;;;0.60;0.37;;;14.70;77.20;;;;;;4922332;29;20839;-71
2023/04/19 12:00:57;;;;;;;0.70;0.60;;;14.60;84.90;;;;;;4928758;29;20467;-69
2023/04/19 12:03:25;;;;;;;0.60;0.20;;;14.50;71.90;;;;;;4919808;29;20456;-69
2023/04/19 12:05:55;;;;;;;0.73;0.27;;;14.70;75.60;;;;;;4921500;29;20473;-71
2023/04/19 12:08:34;;;;;;;0.60;0.40;;;14.80;75.20;;;;;;4928458;29;20477;-70
2023/04/19 12:11:04;;;;;;;1.00;0.60;;;14.80;86.00;;;;;;4936192;29;20461;-70
2023/04/19 12:13:33;;;;;;;0.60;0.27;;;14.90;77.10;;;;;;4935808;29;20547;-72
2023/04/19 12:16:01;;;;;;;0.87;0.40;;;15.00;79.70;;;;;;4936246;29;20493;-70
2023/04/19 12:18:47;;;;;;;0.60;0.10;;;15.00;88.30;;;;;;4935812;29;20957;-69
2023/04/19 12:21:26;;;;;;;0.97;0.57;;;14.80;63.40;;;;;;4928926;29;20478;-71
2023/04/19 12:23:56;;;;;;;0.60;0.10;;;14.80;62.40;;;;;;4931931;29;20453;-71
2023/04/19 12:26:27;;;;;;;2.13;2.03;;;14.90;58.80;;;;;;4935146;29;20474;-71
2023/04/19 12:28:55;;;;;;;0.70;0.20;;;14.80;58.60;;;;;;4925002;29;20455;-70
2023/04/19 12:31:23;;;;;;;0.60;0.30;;;14.90;58.50;;;;;;4935833;29;20464;-71
2023/04/19 12:33:51;;;;;;;0.60;0.10;;;14.90;59.10;;;;;;4934364;29;20499;-71
2023/04/19 12:36:20;;;;;;;0.70;0.37;;;15.00;59.40;;;;;;4939072;29;20573;-70
2023/04/19 12:38:48;;;;;;;0.77;0.33;;;;;;;;;;4961898;23;20521;-76
2023/04/19 12:41:16;;;;;;;0.60;0.10;;;15.00;65.30;;;;;;4949982;29;20453;-78
2023/04/19 12:43:45;;;;;;;0.60;0.20;;;15.00;63.40;;;;;;4942520;29;20455;-78
2023/04/19 12:46:13;;;;;;;0.60;0.10;;;17.40;65.70;;;;;;4934312;29;20464;-77
2023/04/19 12:48:41;;;;;;;0.93;0.60;;;15.10;61.40;;;;;;4939180;29;20466;-73
2023/04/19 12:51:09;;;;;;;0.60;0.10;;;15.10;57.00;;;;;;4936101;29;20466;-76
2023/04/19 12:53:37;;;;;;;0.90;0.37;;;17.90;55.30;;;;;;4937577;29;20449;-76
2023/04/19 12:56:06;;;;;;;0.60;0.10;;;15.40;55.80;;;;;;4935781;29;20453;-76
2023/04/19 12:58:34;;;;;;;0.60;0.10;;;15.50;53.20;;;;;;4933913;29;20485;-77
2023/04/19 13:01:03;;;;;;;0.60;0.20;;;15.60;54.40;;;;;;4937053;29;20494;-76
2023/04/19 13:03:35;;;;;;;0.60;0.10;;;15.60;55.70;;;;;;4936376;29;20462;-76
2023/04/19 13:06:03;;;;;;;0.60;0.20;;;15.70;49.70;;;;;;4934528;29;20873;-75
2023/04/19 13:08:31;;;;;;;1.23;0.37;;;15.50;47.90;;;;;;4936230;29;20473;-76
2023/04/19 13:11:13;;;;;;;0.60;0.20;;;15.40;49.10;;;;;;4933699;29;20452;-77
2023/04/19 13:13:41;;;;;;;0.73;0.50;;;15.30;44.80;;;;;;4937242;29;20524;-76
2023/04/19 13:16:10;;;;;;;0.90;0.50;;;15.20;47.10;;;;;;4935567;29;20473;-76
2023/04/19 13:18:38;;;;;;;1.70;1.60;;;15.20;46.70;;;;;;4926466;29;20478;-77
2023/04/19 13:21:07;;;;;;;0.70;0.20;;;15.20;44.60;;;;;;4934449;29;20500;-76
2023/04/19 13:23:35;;;;;;;0.60;0.10;;;15.30;47.70;;;;;;4937784;29;20447;-77
2023/04/19 13:26:03;;;;;;;0.93;0.40;;;15.40;35.80;;;;;;4934952;29;20504;-76
2023/04/19 13:28:34;;;;;;;0.70;0.30;;;15.20;24.80;;;;;;4936346;29;20466;-77
2023/04/19 13:31:02;;;;;;;0.70;0.20;;;15.10;18.30;;;;;;4937205;29;21020;-76
2023/04/19 13:33:32;;;;;;;0.87;0.30;;;15.20;12.20;;;;;;4933196;29;20500;-77
2023/04/19 13:36:00;;;;;;;0.73;0.20;;;15.20;9.10;;;;;;4923148;29;20456;-76
2023/04/19 13:38:27;;;;;;;0.60;0.20;;;15.20;10.10;;;;;;4925307;29;20484;-76
2023/04/19 13:40:56;;;;;;;1.23;1.13;;;15.20;10.60;;;;;;4930500;29;20973;-79
2023/04/19 13:43:24;;;;;;;1.00;0.50;;;15.30;11.70;;;;;;4936933;29;20447;-77
2023/04/19 13:45:52;;;;;;;0.60;0.20;;;15.40;10.50;;;;;;4931180;29;20445;-75
2023/04/19 13:48:20;;;;;;;0.60;0.10;;;15.30;10.50;;;;;;4933741;29;20482;-77
2023/04/19 13:50:50;;;;;;;0.60;0.10;;;17.80;11.50;;;;;;4937129;29;20448;-76
2023/04/19 13:53:18;;;;;;;0.60;0.20;;;15.30;14.60;;;;;;4936385;29;20450;-78
2023/04/19 13:55:46;;;;;;;1.47;0.40;;;15.20;16.30;;;;;;4934194;29;20527;-76
2023/04/19 13:58:14;;;;;;;0.70;0.47;;;15.30;18.30;;;;;;4932791;29;20469;-76
2023/04/19 14:00:42;;;;;;;0.60;0.13;;;15.40;20.60;;;;;;4936860;29;20522;-77
2023/04/19 14:03:10;;;;;;;0.70;0.23;;;15.60;20.00;;;;;;4933824;29;20473;-77
2023/04/19 14:05:38;;;;;;;0.60;0.20;;;15.70;19.60;;;;;;4937473;29;20545;-77
2023/04/19 14:08:07;;;;;;;0.60;0.23;;;15.60;19.50;;;;;;4937888;29;20471;-76
2023/04/19 14:10:50;;;;;;;2.40;0.87;;;;;;;;;;4928969;29;20447;-78
2023/04/19 14:13:28;;;;;;;0.60;0.30;;;;;;;;;;4938403;29;20457;-77
2023/04/19 14:15:56;;;;;;;0.60;0.10;;;15.50;20.10;;;;;;4936065;29;20452;-76
2023/04/19 14:18:24;;;;;;;0.60;0.50;;;15.60;20.70;;;;;;4936053;29;20491;-77
2023/04/19 14:20:52;;;;;;;0.73;0.20;;;15.80;20.80;;;;;;4936929;29;20481;-77
2023/04/19 14:23:21;;;;;;;0.70;0.30;;;15.90;20.30;;;;;;4943460;29;20909;-77
2023/04/19 14:25:49;;;;;;;0.60;0.10;;;15.00;20.80;;;;;;4950178;28;20463;-77
2023/04/19 14:28:17;;;;;;;0.60;0.40;;;15.90;22.70;;;;;;4936842;29;20883;-77
2023/04/19 14:30:45;;;;;;;0.60;0.20;;;15.90;19.60;;;;;;4936153;29;20451;-77
2023/04/19 14:33:13;;;;;;;0.73;0.40;;;16.00;20.50;;;;;;4934627;29;20480;-77
2023/04/19 14:35:41;;;;;;;0.60;0.10;;;16.00;20.20;;;;;;4936280;29;20483;-77
2023/04/19 14:38:10;;;;;;;1.90;1.80;;;16.10;21.30;;;;;;4935555;29;20474;-76
2023/04/19 14:40:39;;;;;;;0.60;0.20;;;16.20;19.80;;;;;;4933022;29;20496;-76
2023/04/19 14:43:06;;;;;;;3.80;2.33;;;16.20;19.40;;;;;;4924078;29;20501;-76
2023/04/19 14:45:37;;;;;;;0.60;0.10;;;16.00;20.00;;;;;;4915771;29;20448;-76
2023/04/19 14:48:05;;;;;;;0.80;0.33;;;15.80;19.80;;;;;;4928351;29;20911;-77
2023/04/19 14:50:33;;;;;;;0.77;0.43;;;;;;;;;;4921716;29;20812;-77
2023/04/19 14:53:01;;;;;;;1.03;0.93;;;15.70;22.20;;;;;;4924303;29;20563;-77
2023/04/19 14:55:29;;;;;;;0.60;0.20;;;15.50;21.30;;;;;;4930408;29;20629;-76
2023/04/19 14:57:58;;;;;;;0.60;0.30;;;15.60;22.10;;;;;;4932385;29;20494;-77
2023/04/19 15:00:27;;;;;;;0.60;0.17;;;15.60;23.10;;;;;;4929851;29;20592;-77
2023/04/19 15:02:55;;;;;;;0.60;0.10;;;15.70;23.60;;;;;;4933596;29;20458;-76
2023/04/19 15:05:27;;;;;;;1.13;0.70;;;15.70;22.40;;;;;;4923083;29;20504;-77
2023/04/19 15:07:55;;;;;;;0.60;0.20;;;15.90;23.70;;;;;;4919666;29;20511;-77
2023/04/19 15:10:23;;;;;;;0.70;0.30;;;15.80;32.50;;;;;;4927018;29;20469;-76
2023/04/19 15:12:51;;;;;;;0.60;0.10;;;15.90;20.90;;;;;;4934263;29;20467;-78
2023/04/19 15:15:20;;;;;;;0.60;0.20;;;15.90;21.70;;;;;;4938292;29;20468;-76
2023/04/19 15:17:49;;;;;;;0.60;0.10;;;15.80;22.00;;;;;;4939027;29;20470;-77
2023/04/19 15:20:18;;;;;;;0.70;0.40;;;15.80;22.20;;;;;;4932018;29;20444;-79
2023/04/19 15:22:46;;;;;;;0.60;0.20;;;15.70;22.60;;;;;;4935113;29;20458;-77
2023/04/19 15:25:14;;;;;;;0.70;0.33;;;15.60;22.70;;;;;;4932799;29;20451;-77
2023/04/19 15:27:42;;;;;;;0.70;0.20;;;15.60;22.10;;;;;;4936851;29;20471;-77
2023/04/19 15:30:11;;;;;;;0.60;0.10;;;15.70;23.00;;;;;;4933017;29;20455;-77
2023/04/19 15:32:40;;;;;;;0.60;0.20;;;15.70;25.40;;;;;;4930636;29;20567;-77
2023/04/19 15:35:11;;;;;;;0.60;0.10;;;15.70;25.40;;;;;;4935281;29;20450;-76
2023/04/19 15:37:40;;;;;;;0.60;0.20;;;15.60;25.10;;;;;;4923087;29;20477;-77
2023/04/19 15:40:11;;;;;;;1.73;0.30;;;15.60;25.80;;;;;;4924518;29;20747;-77
2023/04/19 15:42:39;;;;;;;0.60;0.10;;;15.70;26.60;;;;;;4929795;29;20534;-76
2023/04/19 15:45:08;;;;;;;1.27;0.50;;;15.70;24.00;;;;;;4933969;29;20460;-77
2023/04/19 15:47:40;;;;;;;1.00;0.43;;;15.60;23.70;;;;;;4924009;29;20468;-77
2023/04/19 15:50:09;;;;;;;0.60;0.20;;;15.50;25.00;;;;;;4940767;29;20543;-77
2023/04/19 15:52:37;;;;;;;0.60;0.10;;;15.40;25.60;;;;;;4948958;29;20445;-77
2023/04/19 15:55:05;;;;;;;0.60;0.10;;;15.30;25.90;;;;;;4942328;29;20470;-77
2023/04/19 15:57:33;;;;;;;0.60;0.10;;;15.20;26.10;;;;;;4937516;29;20486;-77
2023/04/19 16:00:01;;;;;;;0.70;0.43;;;15.10;25.10;;;;;;4937159;29;20457;-76
2023/04/19 16:02:29;;;;;;;0.60;0.20;;;15.00;25.50;;;;;;4936856;29;20490;-77
2023/04/19 16:04:58;;;;;;;3.70;1.60;;;14.90;25.10;;;;;;4936413;29;20475;-76
2023/04/19 16:07:27;;;;;;;0.80;0.80;;;14.70;25.70;;;;;;4936465;29;20882;-77
2023/04/19 16:09:55;;;;;;;0.60;0.30;;;14.60;24.20;;;;;;4935662;29;20540;-76
2023/04/19 16:12:24;;;;;;;0.60;0.20;;;;;;;;;;4937218;29;20449;-75
2023/04/19 16:14:52;;;;;;;0.60;0.20;;;14.50;24.10;;;;;;4935280;29;20973;-76
2023/04/19 16:17:20;;;;;;;5.53;5.13;;;14.60;24.40;;;;;;4934971;29;21036;-76
2023/04/19 16:19:48;;;;;;;0.60;0.20;;;14.60;24.20;;;;;;4937225;29;20455;-76
2023/04/19 16:22:17;;;;;;;0.70;0.53;;;14.50;24.20;;;;;;4937095;29;20481;-75
2023/04/19 16:24:46;;;;;;;1.67;1.13;;;14.40;25.20;;;;;;4937717;29;20463;-74
2023/04/19 16:27:14;;;;;;;0.70;0.40;;;14.40;25.70;;;;;;4937211;29;20469;-77
2023/04/19 16:29:41;;;;;;;0.60;0.10;;;14.30;26.00;;;;;;4937029;29;20821;-74
2023/04/19 16:32:09;;;;;;;0.60;0.20;;;14.20;24.90;;;;;;4936831;29;20444;-74
2023/04/19 16:34:37;;;;;;;0.60;0.10;;;14.20;25.80;;;;;;4929901;29;20521;-74
2023/04/19 16:37:05;;;;;;;0.60;0.20;;;14.20;25.20;;;;;;4936833;29;20556;-75
2023/04/19 16:39:34;;;;;;;0.60;0.20;;;14.20;24.50;;;;;;4936141;29;20852;-75
2023/04/19 16:42:02;;;;;;;0.60;0.47;;;14.10;24.10;;;;;;4930527;29;20484;-73
2023/04/19 16:44:30;;;;;;;0.70;0.20;;;14.10;24.00;;;;;;4935720;29;20988;-74
2023/04/19 16:46:58;;;;;;;1.47;1.27;;;14.10;23.90;;;;;;4936787;29;21061;-75
2023/04/19 16:49:25;;;;;;;0.70;0.40;;;14.10;22.60;;;;;;4935604;29;20534;-74
2023/04/19 16:51:53;;;;;;;0.60;0.10;;;14.10;24.30;;;;;;4936393;29;20461;-75
2023/04/19 16:54:22;;;;;;;0.60;0.10;;;;;;;;;;4935419;29;20479;-74
2023/04/19 16:56:51;;;;;;;0.80;0.30;;;14.00;21.80;;;;;;4935824;29;20474;-75
2023/04/19 16:59:19;;;;;;;0.60;0.10;;;14.00;22.60;;;;;;4930708;29;20878;-75
2023/04/19 17:01:46;;;;;;;1.47;1.17;;;14.00;24.10;;;;;;4927893;29;21032;-74
2023/04/19 17:04:14;;;;;;;1.67;0.70;;;14.00;24.30;;;;;;4928152;29;20452;-74
2023/04/19 17:06:43;;;;;;;3.77;2.97;;;14.00;23.70;;;;;;4926728;29;20566;-75